ACA376 CYWG-CYUL
Flight info
| Callsign | ACA376 |
|---|---|
| Flight time | 2h 28m |
| Altitude | 35000 |
| Route | RORMA DCT AXOMA DCT SIDPO DCT DEGVA DCT OVORA Q919 BEMOG LFLER7 |
| Aircraft | B38M/M-SDE2E3FGHIRWXY/LB1 |
Departure
| Time | 2026-05-06 20:43 |
|---|---|
| Airport | Winnipeg / James Armstrong Richardson International Airport (CYWG) |
Arrival
| Time | 2026-05-06 23:12 |
|---|---|
| Airport | Montreal / Pierre Elliott Trudeau International Airport (CYUL) |
| Time | Latitude | Longitude | Altitude | Speed | Heading |
|---|---|---|---|---|---|
| 2026-05-06 20:25 | 49.90664 | -97.22671 | 770 ft | 0 kts | 164° |
| 2026-05-06 20:33 | 49.90668 | -97.22673 | 768 ft | 2 kts | 164° |
| 2026-05-06 20:34 | 49.90681 | -97.22679 | 769 ft | 2 kts | 163° |
| 2026-05-06 20:34 | 49.90695 | -97.22685 | 769 ft | 2 kts | 164° |
| 2026-05-06 20:34 | 49.90709 | -97.22690 | 769 ft | 2 kts | 182° |
| 2026-05-06 20:34 | 49.90723 | -97.22686 | 769 ft | 2 kts | 201° |
| 2026-05-06 20:35 | 49.90735 | -97.22675 | 769 ft | 2 kts | 223° |
| 2026-05-06 20:35 | 49.90744 | -97.22658 | 769 ft | 2 kts | 243° |
| 2026-05-06 20:35 | 49.90748 | -97.22642 | 769 ft | 0 kts | 258° |
| 2026-05-06 20:35 | 49.90749 | -97.22632 | 768 ft | 1 kts | 261° |
| 2026-05-06 20:39 | 49.90747 | -97.22652 | 770 ft | 9 kts | 261° |
| 2026-05-06 20:39 | 49.90723 | -97.22811 | 771 ft | 18 kts | 248° |
| 2026-05-06 20:39 | 49.90616 | -97.22918 | 771 ft | 21 kts | 176° |
| 2026-05-06 20:39 | 49.90460 | -97.22887 | 770 ft | 25 kts | 195° |
| 2026-05-06 20:40 | 49.90286 | -97.22975 | 770 ft | 27 kts | 198° |
| 2026-05-06 20:40 | 49.90161 | -97.22833 | 769 ft | 26 kts | 107° |
| 2026-05-06 20:40 | 49.90021 | -97.22789 | 768 ft | 24 kts | 200° |
| 2026-05-06 20:40 | 49.89871 | -97.22826 | 768 ft | 22 kts | 142° |
| 2026-05-06 20:41 | 49.89772 | -97.22648 | 767 ft | 22 kts | 129° |
| 2026-05-06 20:41 | 49.89679 | -97.22545 | 766 ft | 14 kts | 199° |
| 2026-05-06 20:41 | 49.89614 | -97.22640 | 767 ft | 13 kts | 229° |
| 2026-05-06 20:41 | 49.89572 | -97.22712 | 767 ft | 8 kts | 228° |
| 2026-05-06 20:42 | 49.89541 | -97.22775 | 767 ft | 7 kts | 253° |
| 2026-05-06 20:42 | 49.89550 | -97.22831 | 767 ft | 5 kts | 307° |
| 2026-05-06 20:42 | 49.89590 | -97.22888 | 767 ft | 17 kts | 319° |
| 2026-05-06 20:42 | 49.89871 | -97.23269 | 769 ft | 89 kts | 316° |
| 2026-05-06 20:43 | 49.90489 | -97.24122 | 777 ft | 148 kts | 319° |
| 2026-05-06 20:43 | 49.91333 | -97.25301 | 1175 ft | 169 kts | 316° |
| 2026-05-06 20:43 | 49.92107 | -97.26409 | 2385 ft | 151 kts | 321° |
| 2026-05-06 20:43 | 49.92915 | -97.27518 | 2860 ft | 163 kts | 319° |
| 2026-05-06 20:44 | 49.93849 | -97.28577 | 3252 ft | 177 kts | 338° |
| 2026-05-06 20:44 | 49.95116 | -97.28603 | 3618 ft | 197 kts | 19° |
| 2026-05-06 20:44 | 49.96159 | -97.27179 | 4142 ft | 214 kts | 58° |
| 2026-05-06 20:44 | 49.96473 | -97.24827 | 4555 ft | 238 kts | 95° |
| 2026-05-06 20:45 | 49.96081 | -97.22271 | 5099 ft | 254 kts | 105° |
| 2026-05-06 20:45 | 49.95649 | -97.19591 | 5750 ft | 264 kts | 99° |
| 2026-05-06 20:45 | 49.95404 | -97.16720 | 6356 ft | 276 kts | 93° |
| 2026-05-06 20:45 | 49.95288 | -97.13766 | 7163 ft | 281 kts | 90° |
| 2026-05-06 20:46 | 49.95214 | -97.10737 | 7962 ft | 286 kts | 90° |
| 2026-05-06 20:46 | 49.95119 | -97.06767 | 9040 ft | 291 kts | 90° |
| 2026-05-06 20:46 | 49.94946 | -97.00918 | 10489 ft | 301 kts | 90° |
| 2026-05-06 20:46 | 49.94838 | -96.97601 | 11018 ft | 315 kts | 90° |
| 2026-05-06 20:47 | 49.94723 | -96.94135 | 11502 ft | 329 kts | 90° |
| 2026-05-06 20:47 | 49.94600 | -96.90496 | 11953 ft | 345 kts | 90° |
| 2026-05-06 20:47 | 49.94471 | -96.86701 | 12384 ft | 360 kts | 91° |
| 2026-05-06 20:47 | 49.94333 | -96.82766 | 12911 ft | 372 kts | 91° |
| 2026-05-06 20:48 | 49.94188 | -96.78738 | 13608 ft | 378 kts | 91° |
| 2026-05-06 20:48 | 49.94040 | -96.74657 | 14319 ft | 384 kts | 91° |
| 2026-05-06 20:48 | 49.93900 | -96.70530 | 15092 ft | 386 kts | 90° |
| 2026-05-06 20:48 | 49.93822 | -96.66358 | 15816 ft | 390 kts | 88° |
| 2026-05-06 20:49 | 49.93791 | -96.62125 | 16553 ft | 393 kts | 88° |
| 2026-05-06 20:49 | 49.93775 | -96.57877 | 17263 ft | 397 kts | 87° |
| 2026-05-06 20:49 | 49.93759 | -96.53611 | 17935 ft | 400 kts | 88° |
| 2026-05-06 20:49 | 49.93736 | -96.49286 | 18603 ft | 404 kts | 88° |
| 2026-05-06 20:50 | 49.93705 | -96.44941 | 19264 ft | 407 kts | 88° |
| 2026-05-06 20:50 | 49.93666 | -96.40559 | 19931 ft | 410 kts | 88° |
| 2026-05-06 20:50 | 49.93624 | -96.36134 | 20548 ft | 414 kts | 88° |
| 2026-05-06 20:50 | 49.93582 | -96.31610 | 21185 ft | 417 kts | 89° |
| 2026-05-06 20:51 | 49.93541 | -96.27095 | 21788 ft | 421 kts | 88° |
| 2026-05-06 20:51 | 49.93499 | -96.22511 | 22405 ft | 423 kts | 88° |
| 2026-05-06 20:51 | 49.93456 | -96.17950 | 22984 ft | 426 kts | 88° |
| 2026-05-06 20:51 | 49.93411 | -96.13362 | 23559 ft | 429 kts | 88° |
| 2026-05-06 20:52 | 49.93363 | -96.08747 | 24105 ft | 432 kts | 88° |
| 2026-05-06 20:52 | 49.93313 | -96.04099 | 24647 ft | 435 kts | 88° |
| 2026-05-06 20:52 | 49.93260 | -95.99370 | 25159 ft | 439 kts | 88° |
| 2026-05-06 20:52 | 49.93204 | -95.94645 | 25639 ft | 443 kts | 88° |
| 2026-05-06 20:53 | 49.93147 | -95.89890 | 26120 ft | 446 kts | 89° |
| 2026-05-06 20:53 | 49.93087 | -95.85077 | 26587 ft | 450 kts | 88° |
| 2026-05-06 20:53 | 49.93024 | -95.80237 | 27097 ft | 452 kts | 88° |
| 2026-05-06 20:53 | 49.92958 | -95.75367 | 27566 ft | 455 kts | 88° |
| 2026-05-06 20:54 | 49.92891 | -95.70469 | 27981 ft | 459 kts | 88° |
| 2026-05-06 20:54 | 49.92820 | -95.65480 | 28435 ft | 461 kts | 88° |
| 2026-05-06 20:54 | 49.92747 | -95.60520 | 28872 ft | 464 kts | 88° |
| 2026-05-06 20:54 | 49.92672 | -95.55536 | 29307 ft | 466 kts | 89° |
| 2026-05-06 20:55 | 49.92593 | -95.50526 | 29828 ft | 466 kts | 89° |
| 2026-05-06 20:55 | 49.92512 | -95.45557 | 30503 ft | 462 kts | 89° |
| 2026-05-06 20:55 | 49.92430 | -95.40612 | 30967 ft | 462 kts | 89° |
| 2026-05-06 20:55 | 49.92345 | -95.35655 | 31361 ft | 462 kts | 89° |
| 2026-05-06 20:56 | 49.92256 | -95.30603 | 31589 ft | 463 kts | 89° |
| 2026-05-06 20:56 | 49.92166 | -95.25606 | 31822 ft | 464 kts | 89° |
| 2026-05-06 20:56 | 49.92075 | -95.20627 | 32023 ft | 465 kts | 89° |
| 2026-05-06 20:56 | 49.91980 | -95.15597 | 32231 ft | 466 kts | 89° |
| 2026-05-06 20:57 | 49.91884 | -95.10588 | 32448 ft | 467 kts | 89° |
| 2026-05-06 20:57 | 49.91785 | -95.05574 | 32642 ft | 468 kts | 89° |
| 2026-05-06 20:57 | 49.91684 | -95.00539 | 32840 ft | 469 kts | 89° |
| 2026-05-06 20:57 | 49.91580 | -94.95473 | 33045 ft | 469 kts | 89° |
| 2026-05-06 20:58 | 49.91430 | -94.90428 | 33238 ft | 470 kts | 92° |
| 2026-05-06 20:58 | 49.91095 | -94.85410 | 33453 ft | 472 kts | 95° |
| 2026-05-06 20:58 | 49.90631 | -94.80388 | 33659 ft | 473 kts | 96° |
| 2026-05-06 20:58 | 49.90113 | -94.75380 | 33914 ft | 473 kts | 97° |
| 2026-05-06 20:59 | 49.89575 | -94.70377 | 34193 ft | 473 kts | 97° |
| 2026-05-06 20:59 | 49.89034 | -94.65370 | 34466 ft | 472 kts | 97° |
| 2026-05-06 20:59 | 49.88495 | -94.60330 | 34715 ft | 473 kts | 97° |
| 2026-05-06 20:59 | 49.87965 | -94.55324 | 34924 ft | 473 kts | 97° |
| 2026-05-06 21:00 | 49.87441 | -94.50303 | 34953 ft | 476 kts | 97° |
| 2026-05-06 21:00 | 49.86403 | -94.40244 | 34957 ft | 472 kts | 96° |
| 2026-05-06 21:01 | 49.85368 | -94.30148 | 34955 ft | 473 kts | 97° |
| 2026-05-06 21:01 | 49.84333 | -94.20076 | 35074 ft | 474 kts | 97° |
| 2026-05-06 21:01 | 49.83816 | -94.15076 | 35419 ft | 471 kts | 97° |
| 2026-05-06 21:02 | 49.83293 | -94.10035 | 35657 ft | 471 kts | 97° |
| 2026-05-06 21:02 | 49.82773 | -94.05039 | 35857 ft | 472 kts | 97° |
| 2026-05-06 21:02 | 49.82252 | -94.00060 | 36074 ft | 472 kts | 97° |
| 2026-05-06 21:02 | 49.81727 | -93.95057 | 36255 ft | 473 kts | 97° |
| 2026-05-06 21:03 | 49.81195 | -93.90017 | 36445 ft | 474 kts | 98° |
| 2026-05-06 21:03 | 49.80663 | -93.84995 | 36636 ft | 474 kts | 98° |
| 2026-05-06 21:03 | 49.80128 | -93.79975 | 36810 ft | 475 kts | 98° |
| 2026-05-06 21:03 | 49.79592 | -93.74961 | 36919 ft | 477 kts | 98° |
| 2026-05-06 21:04 | 49.79050 | -93.69910 | 36926 ft | 478 kts | 98° |
| 2026-05-06 21:04 | 49.77962 | -93.59848 | 36922 ft | 474 kts | 98° |
| 2026-05-06 21:05 | 49.76864 | -93.49782 | 36918 ft | 475 kts | 98° |
| 2026-05-06 21:05 | 49.75761 | -93.39751 | 36918 ft | 475 kts | 98° |
| 2026-05-06 21:06 | 49.74646 | -93.29691 | 36920 ft | 475 kts | 99° |
| 2026-05-06 21:06 | 49.73518 | -93.19604 | 36923 ft | 475 kts | 99° |
| 2026-05-06 21:07 | 49.72392 | -93.09612 | 36923 ft | 475 kts | 98° |
| 2026-05-06 21:07 | 49.71257 | -92.99614 | 36926 ft | 474 kts | 98° |
| 2026-05-06 21:08 | 49.70106 | -92.89561 | 36929 ft | 474 kts | 98° |
| 2026-05-06 21:08 | 49.68949 | -92.79532 | 36923 ft | 474 kts | 98° |
| 2026-05-06 21:09 | 49.67788 | -92.69551 | 36922 ft | 474 kts | 99° |
| 2026-05-06 21:09 | 49.66618 | -92.59575 | 36912 ft | 474 kts | 99° |
| 2026-05-06 21:10 | 49.65429 | -92.49515 | 36896 ft | 475 kts | 99° |
| 2026-05-06 21:10 | 49.64240 | -92.39540 | 36884 ft | 475 kts | 99° |
| 2026-05-06 21:11 | 49.63041 | -92.29545 | 36886 ft | 475 kts | 99° |
| 2026-05-06 21:11 | 49.61833 | -92.19561 | 36885 ft | 476 kts | 99° |
| 2026-05-06 21:12 | 49.60615 | -92.09561 | 36877 ft | 475 kts | 100° |
| 2026-05-06 21:12 | 49.59391 | -91.99599 | 36872 ft | 475 kts | 100° |
| 2026-05-06 21:13 | 49.58161 | -91.89658 | 36877 ft | 475 kts | 100° |
| 2026-05-06 21:13 | 49.56914 | -91.79654 | 36875 ft | 475 kts | 100° |
| 2026-05-06 21:14 | 49.55666 | -91.69716 | 36874 ft | 475 kts | 100° |
| 2026-05-06 21:14 | 49.54408 | -91.59767 | 36871 ft | 475 kts | 100° |
| 2026-05-06 21:15 | 49.53142 | -91.49834 | 36867 ft | 475 kts | 100° |
| 2026-05-06 21:15 | 49.51863 | -91.39862 | 36869 ft | 475 kts | 100° |
| 2026-05-06 21:16 | 49.50604 | -91.30120 | 36866 ft | 476 kts | 101° |
| 2026-05-06 21:16 | 49.49304 | -91.20139 | 36869 ft | 476 kts | 101° |
| 2026-05-06 21:17 | 49.47998 | -91.10171 | 36866 ft | 476 kts | 101° |
| 2026-05-06 21:17 | 49.46685 | -91.00226 | 36858 ft | 475 kts | 101° |
| 2026-05-06 21:18 | 49.45370 | -90.90340 | 36858 ft | 475 kts | 101° |
| 2026-05-06 21:18 | 49.44042 | -90.80422 | 36859 ft | 475 kts | 101° |
| 2026-05-06 21:19 | 49.42704 | -90.70495 | 36856 ft | 475 kts | 101° |
| 2026-05-06 21:19 | 49.41360 | -90.60589 | 36854 ft | 476 kts | 101° |
| 2026-05-06 21:20 | 49.40010 | -90.50711 | 36856 ft | 476 kts | 101° |
| 2026-05-06 21:20 | 49.38642 | -90.40772 | 36854 ft | 476 kts | 101° |
| 2026-05-06 21:21 | 49.37263 | -90.30821 | 36856 ft | 475 kts | 102° |
| 2026-05-06 21:21 | 49.35888 | -90.20965 | 36856 ft | 475 kts | 102° |
| 2026-05-06 21:22 | 49.34504 | -90.11107 | 36854 ft | 474 kts | 102° |
| 2026-05-06 21:22 | 49.33105 | -90.01208 | 36858 ft | 475 kts | 102° |
| 2026-05-06 21:23 | 49.31700 | -89.91329 | 36855 ft | 475 kts | 102° |
| 2026-05-06 21:23 | 49.30291 | -89.81495 | 36853 ft | 475 kts | 102° |
| 2026-05-06 21:24 | 49.28868 | -89.71623 | 36850 ft | 476 kts | 102° |
| 2026-05-06 21:24 | 49.27439 | -89.61770 | 36845 ft | 477 kts | 102° |
| 2026-05-06 21:25 | 49.25998 | -89.51900 | 36839 ft | 476 kts | 102° |
| 2026-05-06 21:25 | 49.24549 | -89.42037 | 36840 ft | 477 kts | 102° |
| 2026-05-06 21:26 | 49.23081 | -89.32109 | 36849 ft | 476 kts | 103° |
| 2026-05-06 21:26 | 49.21607 | -89.22212 | 36856 ft | 476 kts | 103° |
| 2026-05-06 21:27 | 49.20137 | -89.12398 | 36863 ft | 477 kts | 103° |
| 2026-05-06 21:27 | 49.18650 | -89.02537 | 36869 ft | 477 kts | 103° |
| 2026-05-06 21:28 | 49.17159 | -88.92704 | 36870 ft | 477 kts | 103° |
| 2026-05-06 21:28 | 49.15656 | -88.82853 | 36867 ft | 478 kts | 103° |
| 2026-05-06 21:29 | 49.14144 | -88.73005 | 36863 ft | 478 kts | 103° |
| 2026-05-06 21:29 | 49.12619 | -88.63135 | 36860 ft | 478 kts | 103° |
| 2026-05-06 21:30 | 49.11091 | -88.53307 | 36859 ft | 478 kts | 103° |
| 2026-05-06 21:30 | 49.09557 | -88.43496 | 36863 ft | 478 kts | 103° |
| 2026-05-06 21:31 | 49.08005 | -88.33634 | 36865 ft | 477 kts | 104° |
| 2026-05-06 21:31 | 49.06443 | -88.23768 | 36868 ft | 478 kts | 104° |
| 2026-05-06 21:32 | 49.04883 | -88.13971 | 36860 ft | 478 kts | 104° |
| 2026-05-06 21:32 | 49.02513 | -87.99200 | 36844 ft | 479 kts | 104° |
| 2026-05-06 21:33 | 49.00929 | -87.89399 | 36840 ft | 478 kts | 104° |
| 2026-05-06 21:33 | 48.99339 | -87.79618 | 36843 ft | 479 kts | 104° |
| 2026-05-06 21:34 | 48.97737 | -87.69827 | 36845 ft | 479 kts | 104° |
| 2026-05-06 21:34 | 48.96123 | -87.60012 | 36844 ft | 478 kts | 104° |
| 2026-05-06 21:35 | 48.94505 | -87.50235 | 36844 ft | 479 kts | 104° |
| 2026-05-06 21:35 | 48.92880 | -87.40466 | 36840 ft | 479 kts | 104° |
| 2026-05-06 21:36 | 48.91230 | -87.30606 | 36837 ft | 478 kts | 105° |
| 2026-05-06 21:36 | 48.89573 | -87.20758 | 36836 ft | 480 kts | 105° |
| 2026-05-06 21:37 | 48.87919 | -87.10989 | 36834 ft | 479 kts | 105° |
| 2026-05-06 21:37 | 48.86261 | -87.01253 | 36839 ft | 479 kts | 105° |
| 2026-05-06 21:38 | 48.84585 | -86.91465 | 36848 ft | 480 kts | 105° |
| 2026-05-06 21:38 | 48.82905 | -86.81704 | 36848 ft | 480 kts | 105° |
| 2026-05-06 21:39 | 48.81215 | -86.71948 | 36859 ft | 481 kts | 105° |
| 2026-05-06 21:39 | 48.79508 | -86.62142 | 36868 ft | 481 kts | 105° |
| 2026-05-06 21:40 | 48.77797 | -86.52368 | 36875 ft | 480 kts | 105° |
| 2026-05-06 21:40 | 48.76083 | -86.42631 | 36876 ft | 480 kts | 105° |
| 2026-05-06 21:41 | 48.74356 | -86.32873 | 36869 ft | 481 kts | 106° |
| 2026-05-06 21:41 | 48.72571 | -86.23054 | 36864 ft | 480 kts | 107° |
| 2026-05-06 21:42 | 48.70759 | -86.13355 | 36866 ft | 482 kts | 107° |
| 2026-05-06 21:42 | 48.68930 | -86.03653 | 36854 ft | 482 kts | 107° |
| 2026-05-06 21:43 | 48.67090 | -85.93912 | 36854 ft | 482 kts | 107° |
| 2026-05-06 21:43 | 48.65251 | -85.84209 | 36846 ft | 482 kts | 107° |
| 2026-05-06 21:44 | 48.63406 | -85.74514 | 36834 ft | 481 kts | 107° |
| 2026-05-06 21:44 | 48.61557 | -85.64838 | 36833 ft | 481 kts | 107° |
| 2026-05-06 21:45 | 48.59693 | -85.55135 | 36830 ft | 482 kts | 107° |
| 2026-05-06 21:45 | 48.57829 | -85.45467 | 36824 ft | 482 kts | 107° |
| 2026-05-06 21:46 | 48.55956 | -85.35787 | 36825 ft | 482 kts | 107° |
| 2026-05-06 21:46 | 48.54047 | -85.25968 | 36822 ft | 483 kts | 108° |
| 2026-05-06 21:47 | 48.52152 | -85.16275 | 36818 ft | 483 kts | 108° |
| 2026-05-06 21:47 | 48.50243 | -85.06553 | 36800 ft | 482 kts | 108° |
| 2026-05-06 21:48 | 48.48339 | -84.96913 | 36787 ft | 483 kts | 108° |
| 2026-05-06 21:48 | 48.46416 | -84.87222 | 36792 ft | 483 kts | 108° |
| 2026-05-06 21:49 | 48.44487 | -84.77547 | 36793 ft | 483 kts | 108° |
| 2026-05-06 21:49 | 48.42557 | -84.67921 | 36797 ft | 483 kts | 108° |
| 2026-05-06 21:50 | 48.40612 | -84.58263 | 36806 ft | 484 kts | 108° |
| 2026-05-06 21:50 | 48.38656 | -84.48603 | 36816 ft | 485 kts | 108° |
| 2026-05-06 21:51 | 48.36693 | -84.38953 | 36818 ft | 486 kts | 108° |
| 2026-05-06 21:51 | 48.34716 | -84.29282 | 36820 ft | 485 kts | 109° |
| 2026-05-06 21:52 | 48.32719 | -84.19557 | 36823 ft | 486 kts | 109° |
| 2026-05-06 21:52 | 48.31248 | -84.12427 | 36825 ft | 486 kts | 109° |
| 2026-05-06 21:53 | 48.29227 | -84.02671 | 36823 ft | 485 kts | 109° |
| 2026-05-06 21:53 | 48.27217 | -83.93016 | 36821 ft | 485 kts | 109° |
| 2026-05-06 21:54 | 48.25211 | -83.83422 | 36818 ft | 485 kts | 109° |
| 2026-05-06 21:54 | 48.23171 | -83.73719 | 36812 ft | 486 kts | 109° |
| 2026-05-06 21:55 | 48.21124 | -83.64026 | 36808 ft | 487 kts | 109° |
| 2026-05-06 21:55 | 48.19067 | -83.54330 | 36808 ft | 487 kts | 109° |
| 2026-05-06 21:56 | 48.17009 | -83.44679 | 36806 ft | 487 kts | 109° |
| 2026-05-06 21:56 | 48.14948 | -83.35057 | 36809 ft | 488 kts | 109° |
| 2026-05-06 21:57 | 48.12837 | -83.25248 | 36810 ft | 488 kts | 110° |
| 2026-05-06 21:57 | 48.10752 | -83.15607 | 36801 ft | 488 kts | 110° |
| 2026-05-06 21:58 | 48.08662 | -83.05988 | 36795 ft | 489 kts | 110° |
| 2026-05-06 21:58 | 48.06562 | -82.96369 | 36791 ft | 489 kts | 110° |
| 2026-05-06 21:59 | 48.04443 | -82.86702 | 36790 ft | 489 kts | 110° |
| 2026-05-06 21:59 | 48.02323 | -82.77082 | 36792 ft | 490 kts | 111° |
| 2026-05-06 22:00 | 48.00194 | -82.67466 | 36792 ft | 491 kts | 111° |
| 2026-05-06 22:00 | 47.98048 | -82.57815 | 36784 ft | 490 kts | 111° |
| 2026-05-06 22:01 | 47.95904 | -82.48214 | 36781 ft | 490 kts | 111° |
| 2026-05-06 22:01 | 47.93725 | -82.38507 | 36787 ft | 491 kts | 111° |
| 2026-05-06 22:02 | 47.91517 | -82.28714 | 36796 ft | 491 kts | 112° |
| 2026-05-06 22:02 | 47.89306 | -82.18949 | 36798 ft | 492 kts | 112° |
| 2026-05-06 22:03 | 47.87096 | -82.09235 | 36796 ft | 492 kts | 111° |
| 2026-05-06 22:03 | 47.84883 | -81.99552 | 36793 ft | 492 kts | 112° |
| 2026-05-06 22:04 | 47.82669 | -81.89910 | 36791 ft | 492 kts | 112° |
| 2026-05-06 22:04 | 47.80461 | -81.80337 | 36791 ft | 491 kts | 112° |
| 2026-05-06 22:05 | 47.78222 | -81.70670 | 36793 ft | 492 kts | 112° |
| 2026-05-06 22:05 | 47.75985 | -81.61061 | 36788 ft | 493 kts | 112° |
| 2026-05-06 22:06 | 47.73735 | -81.51437 | 36781 ft | 493 kts | 112° |
| 2026-05-06 22:06 | 47.71474 | -81.41811 | 36774 ft | 494 kts | 112° |
| 2026-05-06 22:07 | 47.69245 | -81.32356 | 36770 ft | 495 kts | 113° |
| 2026-05-06 22:07 | 47.66945 | -81.22651 | 36766 ft | 496 kts | 113° |
| 2026-05-06 22:08 | 47.64651 | -81.13007 | 36765 ft | 496 kts | 113° |
| 2026-05-06 22:08 | 47.62354 | -81.03392 | 36759 ft | 496 kts | 113° |
| 2026-05-06 22:09 | 47.60051 | -80.93794 | 36758 ft | 496 kts | 113° |
| 2026-05-06 22:09 | 47.57709 | -80.84083 | 36758 ft | 496 kts | 113° |
| 2026-05-06 22:10 | 47.55393 | -80.74504 | 36757 ft | 494 kts | 113° |
| 2026-05-06 22:10 | 47.53080 | -80.64959 | 36760 ft | 496 kts | 113° |
| 2026-05-06 22:11 | 47.50754 | -80.55395 | 36760 ft | 496 kts | 113° |
| 2026-05-06 22:11 | 47.48407 | -80.45788 | 36756 ft | 496 kts | 113° |
| 2026-05-06 22:12 | 47.46059 | -80.36216 | 36759 ft | 496 kts | 113° |
| 2026-05-06 22:12 | 47.43698 | -80.26635 | 36762 ft | 496 kts | 114° |
| 2026-05-06 22:13 | 47.41332 | -80.17076 | 36762 ft | 497 kts | 114° |
| 2026-05-06 22:13 | 47.38959 | -80.07530 | 36763 ft | 497 kts | 114° |
| 2026-05-06 22:14 | 47.36582 | -79.98004 | 36765 ft | 497 kts | 114° |
| 2026-05-06 22:14 | 47.34191 | -79.88469 | 36771 ft | 499 kts | 114° |
| 2026-05-06 22:15 | 47.31774 | -79.78872 | 36767 ft | 499 kts | 114° |
| 2026-05-06 22:15 | 47.29360 | -79.69324 | 36765 ft | 500 kts | 115° |
| 2026-05-06 22:16 | 47.28148 | -79.64547 | 36924 ft | 502 kts | 114° |
| 2026-05-06 22:16 | 47.26929 | -79.59753 | 37231 ft | 500 kts | 114° |
| 2026-05-06 22:16 | 47.25715 | -79.54981 | 37535 ft | 498 kts | 114° |
| 2026-05-06 22:16 | 47.24486 | -79.50163 | 37759 ft | 499 kts | 114° |
| 2026-05-06 22:17 | 47.23258 | -79.45363 | 37921 ft | 501 kts | 114° |
| 2026-05-06 22:17 | 47.22035 | -79.40595 | 38238 ft | 499 kts | 114° |
| 2026-05-06 22:17 | 47.20815 | -79.35844 | 38538 ft | 498 kts | 114° |
| 2026-05-06 22:17 | 47.19577 | -79.31028 | 38742 ft | 497 kts | 115° |
| 2026-05-06 22:18 | 47.17112 | -79.21487 | 38748 ft | 499 kts | 115° |
| 2026-05-06 22:18 | 47.14652 | -79.11995 | 38751 ft | 497 kts | 115° |
| 2026-05-06 22:19 | 47.12194 | -79.02548 | 38750 ft | 496 kts | 115° |
| 2026-05-06 22:19 | 47.09729 | -78.93117 | 38750 ft | 498 kts | 115° |
| 2026-05-06 22:20 | 47.07243 | -78.83645 | 38748 ft | 498 kts | 115° |
| 2026-05-06 22:20 | 47.04760 | -78.74222 | 38745 ft | 497 kts | 115° |
| 2026-05-06 22:21 | 47.02273 | -78.64823 | 38741 ft | 498 kts | 115° |
| 2026-05-06 22:21 | 46.99767 | -78.55391 | 38742 ft | 499 kts | 115° |
| 2026-05-06 22:22 | 46.97240 | -78.45919 | 38762 ft | 500 kts | 115° |
| 2026-05-06 22:22 | 46.94713 | -78.36483 | 38772 ft | 500 kts | 115° |
| 2026-05-06 22:23 | 46.92123 | -78.26848 | 38776 ft | 500 kts | 116° |
| 2026-05-06 22:23 | 46.89561 | -78.17355 | 38776 ft | 500 kts | 116° |
| 2026-05-06 22:24 | 46.86938 | -78.07675 | 38773 ft | 499 kts | 116° |
| 2026-05-06 22:24 | 46.84362 | -77.98212 | 38773 ft | 499 kts | 116° |
| 2026-05-06 22:25 | 46.81798 | -77.88831 | 38775 ft | 499 kts | 116° |
| 2026-05-06 22:25 | 46.79205 | -77.79388 | 38778 ft | 500 kts | 116° |
| 2026-05-06 22:26 | 46.76623 | -77.70013 | 38762 ft | 500 kts | 116° |
| 2026-05-06 22:26 | 46.74024 | -77.60613 | 38774 ft | 500 kts | 116° |
| 2026-05-06 22:27 | 46.71405 | -77.51183 | 38769 ft | 501 kts | 116° |
| 2026-05-06 22:27 | 46.68796 | -77.41819 | 38776 ft | 500 kts | 117° |
| 2026-05-06 22:28 | 46.66165 | -77.32446 | 38770 ft | 500 kts | 117° |
| 2026-05-06 22:28 | 46.63469 | -77.22891 | 38773 ft | 501 kts | 117° |
| 2026-05-06 22:29 | 46.60823 | -77.13551 | 38772 ft | 499 kts | 117° |
| 2026-05-06 22:29 | 46.58185 | -77.04271 | 38779 ft | 499 kts | 117° |
| 2026-05-06 22:30 | 46.55534 | -76.94982 | 38777 ft | 500 kts | 117° |
| 2026-05-06 22:30 | 46.52851 | -76.85616 | 38778 ft | 501 kts | 117° |
| 2026-05-06 22:31 | 46.50169 | -76.76285 | 38777 ft | 501 kts | 117° |
| 2026-05-06 22:31 | 46.47486 | -76.66981 | 38780 ft | 501 kts | 118° |
| 2026-05-06 22:32 | 46.44799 | -76.57703 | 38776 ft | 501 kts | 117° |
| 2026-05-06 22:32 | 46.42092 | -76.48389 | 38785 ft | 501 kts | 118° |
| 2026-05-06 22:33 | 46.39386 | -76.39118 | 38787 ft | 500 kts | 117° |
| 2026-05-06 22:33 | 46.36657 | -76.29801 | 38782 ft | 501 kts | 118° |
| 2026-05-06 22:34 | 46.33976 | -76.20676 | 38779 ft | 501 kts | 118° |
| 2026-05-06 22:34 | 46.33466 | -76.18945 | 38776 ft | 501 kts | 119° |
| 2026-05-06 22:35 | 46.33402 | -76.18728 | 38775 ft | 501 kts | 119° |
| 2026-05-06 22:35 | 46.31571 | -76.12528 | 38779 ft | 502 kts | 119° |
| 2026-05-06 22:36 | 46.29916 | -76.06931 | 38500 ft | 502 kts | 119° |
| 2026-05-06 22:36 | 46.28555 | -76.02336 | 37994 ft | 501 kts | 119° |
| 2026-05-06 22:36 | 46.27187 | -75.97725 | 37444 ft | 503 kts | 119° |
| 2026-05-06 22:36 | 46.25808 | -75.93094 | 36789 ft | 507 kts | 120° |
| 2026-05-06 22:37 | 46.24409 | -75.88410 | 36085 ft | 510 kts | 120° |
| 2026-05-06 22:37 | 46.23015 | -75.83749 | 35538 ft | 507 kts | 120° |
| 2026-05-06 22:37 | 46.21646 | -75.79153 | 35399 ft | 494 kts | 120° |
| 2026-05-06 22:37 | 46.20311 | -75.74664 | 35122 ft | 486 kts | 120° |
| 2026-05-06 22:38 | 46.18971 | -75.70189 | 34714 ft | 487 kts | 120° |
| 2026-05-06 22:38 | 46.17661 | -75.65758 | 34157 ft | 480 kts | 120° |
| 2026-05-06 22:38 | 46.16452 | -75.61294 | 33257 ft | 484 kts | 116° |
| 2026-05-06 22:38 | 46.15437 | -75.56632 | 32081 ft | 491 kts | 112° |
| 2026-05-06 22:39 | 46.14653 | -75.51840 | 30785 ft | 497 kts | 108° |
| 2026-05-06 22:39 | 46.14039 | -75.46972 | 29720 ft | 492 kts | 105° |
| 2026-05-06 22:39 | 46.13531 | -75.42118 | 28664 ft | 486 kts | 104° |
| 2026-05-06 22:39 | 46.13088 | -75.37364 | 27835 ft | 478 kts | 103° |
| 2026-05-06 22:40 | 46.12668 | -75.32598 | 27195 ft | 474 kts | 104° |
| 2026-05-06 22:40 | 46.12249 | -75.27802 | 26575 ft | 470 kts | 104° |
| 2026-05-06 22:40 | 46.11835 | -75.23122 | 26002 ft | 466 kts | 104° |
| 2026-05-06 22:40 | 46.11425 | -75.18586 | 25383 ft | 464 kts | 104° |
| 2026-05-06 22:41 | 46.10605 | -75.09736 | 24130 ft | 461 kts | 104° |
| 2026-05-06 22:41 | 46.10194 | -75.05412 | 23470 ft | 460 kts | 104° |
| 2026-05-06 22:41 | 46.09775 | -75.01056 | 22939 ft | 458 kts | 104° |
| 2026-05-06 22:42 | 46.09342 | -74.96604 | 22118 ft | 461 kts | 104° |
| 2026-05-06 22:42 | 46.08909 | -74.92239 | 21269 ft | 464 kts | 104° |
| 2026-05-06 22:42 | 46.08470 | -74.87812 | 20898 ft | 456 kts | 104° |
| 2026-05-06 22:42 | 46.08043 | -74.83483 | 20581 ft | 448 kts | 104° |
| 2026-05-06 22:43 | 46.07615 | -74.79150 | 20084 ft | 445 kts | 104° |
| 2026-05-06 22:43 | 46.07208 | -74.75053 | 19578 ft | 442 kts | 104° |
| 2026-05-06 22:43 | 46.06791 | -74.70883 | 18990 ft | 441 kts | 104° |
| 2026-05-06 22:43 | 46.06378 | -74.66768 | 18458 ft | 440 kts | 104° |
| 2026-05-06 22:44 | 46.05960 | -74.62615 | 17904 ft | 437 kts | 103° |
| 2026-05-06 22:44 | 46.05571 | -74.58751 | 16660 ft | 439 kts | 103° |
| 2026-05-06 22:44 | 46.05180 | -74.54954 | 15213 ft | 442 kts | 102° |
| 2026-05-06 22:44 | 46.04798 | -74.51442 | 14073 ft | 442 kts | 102° |
| 2026-05-06 22:45 | 46.04435 | -74.48280 | 13258 ft | 440 kts | 102° |
| 2026-05-06 22:45 | 46.03931 | -74.44152 | 12628 ft | 437 kts | 103° |
| 2026-05-06 22:45 | 46.03338 | -74.40242 | 12714 ft | 428 kts | 108° |
| 2026-05-06 22:45 | 46.02584 | -74.36578 | 13337 ft | 418 kts | 113° |
| 2026-05-06 22:46 | 46.01594 | -74.32812 | 14090 ft | 406 kts | 118° |
| 2026-05-06 22:46 | 46.00530 | -74.29520 | 14496 ft | 401 kts | 124° |
| 2026-05-06 22:46 | 45.99216 | -74.26348 | 14713 ft | 392 kts | 131° |
| 2026-05-06 22:46 | 45.97646 | -74.23596 | 14962 ft | 381 kts | 143° |
| 2026-05-06 22:47 | 45.96329 | -74.21889 | 15046 ft | 376 kts | 150° |
| 2026-05-06 22:47 | 45.94358 | -74.19928 | 14973 ft | 370 kts | 158° |
| 2026-05-06 22:47 | 45.92186 | -74.18418 | 14935 ft | 360 kts | 165° |
| 2026-05-06 22:47 | 45.90902 | -74.17731 | 14776 ft | 359 kts | 169° |
| 2026-05-06 22:48 | 45.90863 | -74.17712 | 14771 ft | 359 kts | 170° |
| 2026-05-06 22:49 | 45.90839 | -74.17701 | 14768 ft | 359 kts | 170° |
| 2026-05-06 22:49 | 45.89466 | -74.17146 | 14680 ft | 354 kts | 175° |
| 2026-05-06 22:49 | 45.86980 | -74.16792 | 15190 ft | 332 kts | 188° |
| 2026-05-06 22:49 | 45.84390 | -74.16816 | 15662 ft | 333 kts | 180° |
| 2026-05-06 22:50 | 45.81684 | -74.15336 | 15475 ft | 346 kts | 151° |
| 2026-05-06 22:50 | 45.79846 | -74.12919 | 15176 ft | 339 kts | 140° |
| 2026-05-06 22:50 | 45.77996 | -74.09909 | 14646 ft | 325 kts | 140° |
| 2026-05-06 22:50 | 45.75705 | -74.06840 | 13973 ft | 306 kts | 149° |
| 2026-05-06 22:51 | 45.73469 | -74.04352 | 13271 ft | 298 kts | 150° |
| 2026-05-06 22:51 | 45.71263 | -74.01858 | 12456 ft | 296 kts | 148° |
| 2026-05-06 22:51 | 45.69178 | -73.99261 | 11623 ft | 298 kts | 138° |
| 2026-05-06 22:51 | 45.67615 | -73.95991 | 10868 ft | 302 kts | 122° |
| 2026-05-06 22:52 | 45.66326 | -73.92304 | 10101 ft | 297 kts | 120° |
| 2026-05-06 22:52 | 45.65109 | -73.88896 | 9383 ft | 292 kts | 121° |
| 2026-05-06 22:52 | 45.63889 | -73.85676 | 8667 ft | 289 kts | 121° |
| 2026-05-06 22:52 | 45.62709 | -73.82635 | 7986 ft | 285 kts | 120° |
| 2026-05-06 22:53 | 45.61481 | -73.79437 | 7330 ft | 277 kts | 117° |
| 2026-05-06 22:53 | 45.60773 | -73.76136 | 6665 ft | 270 kts | 89° |
| 2026-05-06 22:53 | 45.61473 | -73.72858 | 6022 ft | 254 kts | 51° |
| 2026-05-06 22:53 | 45.63086 | -73.70562 | 5951 ft | 235 kts | 38° |
| 2026-05-06 22:54 | 45.64769 | -73.68354 | 5963 ft | 232 kts | 40° |
| 2026-05-06 22:54 | 45.66356 | -73.66193 | 5848 ft | 233 kts | 40° |
| 2026-05-06 22:54 | 45.68040 | -73.63951 | 5280 ft | 230 kts | 39° |
| 2026-05-06 22:54 | 45.69663 | -73.61812 | 4771 ft | 228 kts | 39° |
| 2026-05-06 22:55 | 45.71379 | -73.59544 | 4095 ft | 227 kts | 40° |
| 2026-05-06 22:55 | 45.73023 | -73.57225 | 3930 ft | 223 kts | 49° |
| 2026-05-06 22:55 | 45.73759 | -73.54103 | 3970 ft | 231 kts | 93° |
| 2026-05-06 22:55 | 45.72689 | -73.51097 | 3960 ft | 229 kts | 136° |
| 2026-05-06 22:56 | 45.70994 | -73.48823 | 3962 ft | 228 kts | 137° |
| 2026-05-06 22:56 | 45.69169 | -73.46451 | 3961 ft | 229 kts | 148° |
| 2026-05-06 22:56 | 45.66955 | -73.45822 | 3966 ft | 223 kts | 194° |
| 2026-05-06 22:56 | 45.65309 | -73.47411 | 3965 ft | 208 kts | 239° |
| 2026-05-06 22:57 | 45.64774 | -73.49847 | 3968 ft | 180 kts | 260° |
| 2026-05-06 22:57 | 45.64223 | -73.52034 | 3967 ft | 167 kts | 240° |
| 2026-05-06 22:57 | 45.63292 | -73.53743 | 3972 ft | 166 kts | 231° |
| 2026-05-06 22:57 | 45.62206 | -73.55358 | 3925 ft | 169 kts | 227° |
| 2026-05-06 22:58 | 45.61056 | -73.56904 | 3635 ft | 169 kts | 226° |
| 2026-05-06 22:58 | 45.59967 | -73.58344 | 3329 ft | 165 kts | 225° |
| 2026-05-06 22:58 | 45.58878 | -73.59780 | 3015 ft | 162 kts | 224° |
| 2026-05-06 22:58 | 45.57682 | -73.61349 | 2686 ft | 157 kts | 224° |
| 2026-05-06 22:59 | 45.56519 | -73.62878 | 2367 ft | 154 kts | 224° |
| 2026-05-06 22:59 | 45.55425 | -73.64313 | 2068 ft | 152 kts | 223° |
| 2026-05-06 22:59 | 45.54611 | -73.65380 | 1889 ft | 165 kts | 223° |
| 2026-05-06 22:59 | 45.53676 | -73.66368 | 2046 ft | 167 kts | 211° |
| 2026-05-06 23:00 | 45.52631 | -73.66964 | 2769 ft | 160 kts | 196° |
| 2026-05-06 23:00 | 45.51481 | -73.67175 | 2945 ft | 175 kts | 182° |
| 2026-05-06 23:00 | 45.50256 | -73.66999 | 3127 ft | 179 kts | 171° |
| 2026-05-06 23:00 | 45.49052 | -73.66472 | 3345 ft | 187 kts | 158° |
| 2026-05-06 23:01 | 45.48036 | -73.65332 | 3186 ft | 191 kts | 123° |
| 2026-05-06 23:01 | 45.47727 | -73.63443 | 3214 ft | 204 kts | 82° |
| 2026-05-06 23:01 | 45.48168 | -73.61483 | 3241 ft | 211 kts | 66° |
| 2026-05-06 23:01 | 45.48791 | -73.59534 | 3085 ft | 223 kts | 61° |
| 2026-05-06 23:02 | 45.49465 | -73.57562 | 2860 ft | 220 kts | 63° |
| 2026-05-06 23:02 | 45.50104 | -73.55578 | 3084 ft | 222 kts | 64° |
| 2026-05-06 23:02 | 45.50752 | -73.53558 | 3086 ft | 224 kts | 63° |
| 2026-05-06 23:02 | 45.51420 | -73.51554 | 3087 ft | 226 kts | 62° |
| 2026-05-06 23:03 | 45.52184 | -73.49604 | 3097 ft | 224 kts | 53° |
| 2026-05-06 23:03 | 45.53171 | -73.47878 | 3070 ft | 223 kts | 46° |
| 2026-05-06 23:03 | 45.54211 | -73.46219 | 2970 ft | 225 kts | 46° |
| 2026-05-06 23:03 | 45.55242 | -73.44574 | 2969 ft | 220 kts | 46° |
| 2026-05-06 23:04 | 45.56254 | -73.43050 | 2965 ft | 204 kts | 35° |
| 2026-05-06 23:04 | 45.57473 | -73.42164 | 3003 ft | 195 kts | 17° |
| 2026-05-06 23:04 | 45.58772 | -73.41547 | 2965 ft | 196 kts | 16° |
| 2026-05-06 23:04 | 45.60087 | -73.41057 | 2964 ft | 195 kts | 1° |
| 2026-05-06 23:05 | 45.61351 | -73.41610 | 2967 ft | 192 kts | 317° |
| 2026-05-06 23:05 | 45.61949 | -73.43249 | 2975 ft | 189 kts | 279° |
| 2026-05-06 23:05 | 45.62089 | -73.45124 | 2965 ft | 190 kts | 275° |
| 2026-05-06 23:05 | 45.62226 | -73.46951 | 2963 ft | 180 kts | 276° |
| 2026-05-06 23:06 | 45.62371 | -73.48778 | 2969 ft | 189 kts | 276° |
| 2026-05-06 23:06 | 45.62336 | -73.50640 | 2969 ft | 190 kts | 259° |
| 2026-05-06 23:06 | 45.62013 | -73.52467 | 2970 ft | 191 kts | 256° |
| 2026-05-06 23:06 | 45.61663 | -73.54301 | 2972 ft | 191 kts | 256° |
| 2026-05-06 23:07 | 45.61258 | -73.56088 | 2968 ft | 187 kts | 247° |
| 2026-05-06 23:07 | 45.60526 | -73.57555 | 2967 ft | 175 kts | 227° |
| 2026-05-06 23:07 | 45.59690 | -73.58676 | 2990 ft | 154 kts | 226° |
| 2026-05-06 23:07 | 45.58946 | -73.59678 | 2969 ft | 144 kts | 226° |
| 2026-05-06 23:08 | 45.58220 | -73.60643 | 2852 ft | 143 kts | 225° |
| 2026-05-06 23:08 | 45.57492 | -73.61600 | 2620 ft | 140 kts | 224° |
| 2026-05-06 23:08 | 45.56782 | -73.62532 | 2447 ft | 138 kts | 225° |
| 2026-05-06 23:08 | 45.56076 | -73.63459 | 2239 ft | 138 kts | 224° |
| 2026-05-06 23:09 | 45.55379 | -73.64372 | 2054 ft | 136 kts | 224° |
| 2026-05-06 23:09 | 45.54686 | -73.65282 | 1859 ft | 130 kts | 223° |
| 2026-05-06 23:09 | 45.54033 | -73.66137 | 1680 ft | 127 kts | 224° |
| 2026-05-06 23:09 | 45.53385 | -73.66986 | 1509 ft | 128 kts | 224° |
| 2026-05-06 23:10 | 45.52734 | -73.67838 | 1331 ft | 126 kts | 223° |
| 2026-05-06 23:10 | 45.52085 | -73.68689 | 1162 ft | 126 kts | 223° |
| 2026-05-06 23:10 | 45.51439 | -73.69538 | 985 ft | 127 kts | 224° |
| 2026-05-06 23:10 | 45.50783 | -73.70389 | 802 ft | 127 kts | 223° |
| 2026-05-06 23:11 | 45.50136 | -73.71238 | 641 ft | 126 kts | 223° |
| 2026-05-06 23:11 | 45.49493 | -73.72081 | 466 ft | 125 kts | 220° |
| 2026-05-06 23:11 | 45.48843 | -73.72923 | 293 ft | 125 kts | 224° |
| 2026-05-06 23:11 | 45.48200 | -73.73766 | 127 ft | 125 kts | 220° |
| 2026-05-06 23:12 | 45.47610 | -73.74514 | 103 ft | 89 kts | 221° |
| 2026-05-06 23:12 | 45.47340 | -73.74867 | 101 ft | 19 kts | 224° |
| 2026-05-06 23:12 | 45.47249 | -73.74994 | 100 ft | 45 kts | 223° |
| 2026-05-06 23:12 | 45.46969 | -73.75355 | 98 ft | 51 kts | 223° |
| 2026-05-06 23:13 | 45.46738 | -73.75568 | 97 ft | 34 kts | 194° |
| 2026-05-06 23:13 | 45.46614 | -73.75610 | 96 ft | 11 kts | 195° |
| 2026-05-06 23:13 | 45.46537 | -73.75642 | 95 ft | 12 kts | 195° |
| 2026-05-06 23:13 | 45.46455 | -73.75672 | 94 ft | 12 kts | 193° |
| 2026-05-06 23:14 | 45.46370 | -73.75699 | 94 ft | 13 kts | 189° |
| 2026-05-06 23:14 | 45.46263 | -73.75704 | 93 ft | 18 kts | 177° |
| 2026-05-06 23:14 | 45.46147 | -73.75665 | 92 ft | 17 kts | 117° |
| 2026-05-06 23:14 | 45.46142 | -73.75497 | 92 ft | 17 kts | 88° |
| 2026-05-06 23:15 | 45.46146 | -73.75329 | 92 ft | 17 kts | 87° |
| 2026-05-06 23:15 | 45.46152 | -73.75139 | 93 ft | 22 kts | 87° |
| 2026-05-06 23:15 | 45.46160 | -73.74920 | 93 ft | 22 kts | 87° |
| 2026-05-06 23:15 | 45.46165 | -73.74705 | 93 ft | 21 kts | 88° |
| 2026-05-06 23:16 | 45.46145 | -73.74540 | 93 ft | 15 kts | 130° |
| 2026-05-06 23:16 | 45.46068 | -73.74489 | 93 ft | 10 kts | 172° |
| 2026-05-06 23:16 | 45.46001 | -73.74501 | 93 ft | 9 kts | 201° |
| 2026-05-06 23:16 | 45.45975 | -73.74522 | 92 ft | 3 kts | 209° |
| 2026-05-06 23:17 | 45.45958 | -73.74527 | 92 ft | 3 kts | 183° |
| 2026-05-06 23:17 | 45.45939 | -73.74527 | 92 ft | 3 kts | 178° |
| 2026-05-06 23:17 | 45.45920 | -73.74526 | 92 ft | 3 kts | 176° |
| 2026-05-06 23:17 | 45.45901 | -73.74524 | 92 ft | 1 kts | 177° |
| 2026-05-06 23:18 | 45.45892 | -73.74524 | 92 ft | 1 kts | 177° |